Friday, April 29, 2016
17:50 UTC
  |  Log In   |  Register Free
Airport Search:

South Alabama Regional At Bill Benton Field Airport
(K79J)

South Alabama Regional At Bill Benton Field Airport Diagram
No Airport Diagram Available

FAA data valid effective Mar 31 2016 - May 26 2016 (unless otherwise noted).

 
 
 
 
 
 
 
 
 
 
 
 
 
 
Current Aviation Weather for K79J

Weather Summary


The most recent METAR observation for 79J was updated at: 12:53 UTC
METAR for K79J is not available. Closest METAR is for K0J4
K79J  (most recent observation was updatred at 29:16 UTC)
291656Z AUTO VRB03KT 10SM CLR 32/20 A2998 RMK AO2 SLP148 T03170200

K0J4  (16.5 nm NW)   (most recent observation was updated at 29:16 UTC)
291658Z AUTO 09004KT 10SM FEW034 29/19 A2999 RMK AO2 SLP151 T02890194

KEDN  (25.3 nm NW)   (most recent observation was updated at 29:17 UTC)
291735Z AUTO 10005KT 10SM BKN034 27/20 A2997 RMK AO2

TAF for K79J is not available.
KOZR  (34.9 nm NW)   (most recent observation was updatred at 29:16 UTC)
291600Z 2916/3022 27006KT 9999 SKC QNH2995INS TEMPO 2920/2924 26012KT 4800 VCTS BKN035CB BECMG 3006/3007 21006KT 3200 BR SKC QNH2996INS TEMPO 3007/3010 0800 FG BECMG 3011/3012 16009KT 9999 NSW SKC QNH2997INS BECMG 3016/3017 18010G15KT 9999 SKC QNH2997INS TX29/2920Z TN17/3010Z


GlobalAir.com is loading additional information.
 Current Weather at 79J
86.0 F° (30.0 C°)

East winds at 3.5 mph
Pressure:
30.00 in
Humidity:
53%
Wind:
East at 3.5 mph
Dew Point:
66.9 F° (19.4 C°)
Visibility:
10.00 mi
79J NOAA Radar




Find All Airport Services Find A Hotel Find A Rental Car Find A Golf Course Find A Restaurant $100 Hamburger



Airport Weather Forecast for K79J

Translated METAR for K79J (1656 UTC)
METAR:
K79J 291656Z AUTO VRB03KT 10SM CLR 32/20 A2998 RMK AO2 SLP148 T03170200
Conditions at:
K79J (South Alabama Rgnl At Bill Benton Field, AL) observed 1656 UTC 29 April 2016
Temperature:
32°C (89.6°F)
Dewpoint:
20°C (68°F) [RH = 49.1]
Pressure:
29.98 inches Hg (1015.2 mb)
pressure at sea level is 148 in Hg
Winds:
variable wind direction at 3.5 mph (3 knots: 1.5 m/s)
Visibility:
10 mile(s)
Ceiling:
at least 12,000 feet AGL
Clouds:
Clear below 12,000 feet AGL
Remarks:
site is un-manned
site is automated and HAS a precipitation sensor

Translated TAF for KOZR (Cairns Aaf (Fort Rucker), AL) (1600 UTC)
TAF text:
KOZR 291600Z 2916/3022 27006KT 9999 SKC QNH2995INS
Forecast period:
Friday Apr 29 2016 16:00 UTC - Saturday Apr 30 2016 22:00 UTC
Forecast type:
FROM: standard forecast or significant change
Winds:
from the W (270 degrees) at 6.9 mph (6 knots: 3.1 m/s)
Visibility:
Ceiling:
at least 12,000 feet AGL
Clouds:
Clear Skies
Weather:
no significant weather observed at this time
TAF text:
2920/2924 26012KT 4800 VCTS BKN035CB BECMG 3006/3007 21006KT 3200 BR SKC QNH2996INS
Forecast period:
Saturday Apr 30 2016 20:00 UTC - Saturday Apr 30 2016 24:00 UTC
Forecast type:
FROM: standard forecast or significant change
Winds:
from the SSW (210 degrees) at 6.9 mph (6 knots: 3.1 m/s)
Visibility:
Ceiling:
at least 12,000 feet AGL
Clouds:
Clear Skies
Weather:
Moderate In Vicinity Thunderstorm
FBO's on the Field
FBO Company Facility Photos Services Transportation Aviation Fuel Prices: Prices include tax
Catering Weather Repair Courtesy Rental Type 100LL JetA JetA+ MOGAS 8087
 
South Alabama Regional Airport

This FBO has not yet been rated
FS:Phillips 66
Last Updated: Apr-15
Login to update fuel prices
SS:
Contact South Alabama Regional AirportMore FBO Information
 
Add another FBO Facility Photos Catering Weather Repair Courtesy Rental Type 100LL JetA JetA+ MOGAS 8087
Services Transportation Aviation Fuel Prices: Prices include tax


model-print
model-print
model-print
model-print